sensor_id;sensor_type;location;lat;lon;timestamp;P1;durP1;ratioP1;P2;durP2;ratioP2
37321;SDS011;23697;48.684;9.032;2023-09-30T00:00:08;14.00;;;5.05;;
37321;SDS011;23697;48.684;9.032;2023-09-30T00:02:36;11.65;;;5.00;;
37321;SDS011;23697;48.684;9.032;2023-09-30T00:05:03;12.23;;;5.00;;
37321;SDS011;23697;48.684;9.032;2023-09-30T00:07:30;12.70;;;5.22;;
37321;SDS011;23697;48.684;9.032;2023-09-30T00:09:57;14.18;;;4.97;;
37321;SDS011;23697;48.684;9.032;2023-09-30T00:12:26;13.25;;;5.20;;
37321;SDS011;23697;48.684;9.032;2023-09-30T00:14:53;11.20;;;4.60;;
37321;SDS011;23697;48.684;9.032;2023-09-30T00:17:20;11.07;;;4.45;;
37321;SDS011;23697;48.684;9.032;2023-09-30T00:19:47;10.18;;;4.65;;
37321;SDS011;23697;48.684;9.032;2023-09-30T00:22:14;10.77;;;4.72;;
37321;SDS011;23697;48.684;9.032;2023-09-30T00:24:41;12.30;;;4.90;;
37321;SDS011;23697;48.684;9.032;2023-09-30T00:27:08;11.65;;;4.93;;
37321;SDS011;23697;48.684;9.032;2023-09-30T00:29:36;13.88;;;4.82;;
37321;SDS011;23697;48.684;9.032;2023-09-30T00:32:03;14.95;;;4.93;;
37321;SDS011;23697;48.684;9.032;2023-09-30T00:34:32;15.20;;;5.22;;
37321;SDS011;23697;48.684;9.032;2023-09-30T00:36:59;11.43;;;4.93;;
37321;SDS011;23697;48.684;9.032;2023-09-30T00:39:26;11.32;;;4.50;;
37321;SDS011;23697;48.684;9.032;2023-09-30T00:41:55;11.82;;;4.70;;
37321;SDS011;23697;48.684;9.032;2023-09-30T00:44:25;11.77;;;4.30;;
37321;SDS011;23697;48.684;9.032;2023-09-30T00:46:53;12.23;;;4.25;;
37321;SDS011;23697;48.684;9.032;2023-09-30T00:49:21;11.45;;;4.40;;
37321;SDS011;23697;48.684;9.032;2023-09-30T00:51:49;11.82;;;4.70;;
37321;SDS011;23697;48.684;9.032;2023-09-30T00:54:16;9.35;;;4.15;;
37321;SDS011;23697;48.684;9.032;2023-09-30T00:56:44;10.88;;;4.03;;
37321;SDS011;23697;48.684;9.032;2023-09-30T00:59:21;9.20;;;3.97;;
37321;SDS011;23697;48.684;9.032;2023-09-30T01:04:24;10.48;;;4.32;;
37321;SDS011;23697;48.684;9.032;2023-09-30T01:06:52;11.23;;;4.20;;
37321;SDS011;23697;48.684;9.032;2023-09-30T01:09:22;12.85;;;4.30;;
37321;SDS011;23697;48.684;9.032;2023-09-30T01:11:49;12.93;;;4.15;;
37321;SDS011;23697;48.684;9.032;2023-09-30T01:14:26;11.18;;;4.30;;
37321;SDS011;23697;48.684;9.032;2023-09-30T01:16:55;10.40;;;4.13;;
37321;SDS011;23697;48.684;9.032;2023-09-30T01:19:22;10.63;;;4.45;;
37321;SDS011;23697;48.684;9.032;2023-09-30T01:21:52;12.15;;;4.45;;
37321;SDS011;23697;48.684;9.032;2023-09-30T01:24:21;11.52;;;4.10;;
37321;SDS011;23697;48.684;9.032;2023-09-30T01:26:50;10.82;;;4.13;;
37321;SDS011;23697;48.684;9.032;2023-09-30T01:29:18;13.15;;;4.32;;
37321;SDS011;23697;48.684;9.032;2023-09-30T01:31:45;10.25;;;3.92;;
37321;SDS011;23697;48.684;9.032;2023-09-30T01:34:13;10.00;;;4.10;;
37321;SDS011;23697;48.684;9.032;2023-09-30T01:36:40;9.80;;;4.00;;
37321;SDS011;23697;48.684;9.032;2023-09-30T01:39:08;10.70;;;4.22;;
37321;SDS011;23697;48.684;9.032;2023-09-30T01:41:37;12.55;;;4.15;;
37321;SDS011;23697;48.684;9.032;2023-09-30T01:44:05;9.63;;;4.07;;
37321;SDS011;23697;48.684;9.032;2023-09-30T01:46:32;9.80;;;3.85;;
37321;SDS011;23697;48.684;9.032;2023-09-30T01:48:59;11.32;;;4.15;;
37321;SDS011;23697;48.684;9.032;2023-09-30T01:51:25;9.35;;;3.72;;
37321;SDS011;23697;48.684;9.032;2023-09-30T01:53:53;11.20;;;4.00;;
37321;SDS011;23697;48.684;9.032;2023-09-30T01:56:21;9.43;;;3.90;;
37321;SDS011;23697;48.684;9.032;2023-09-30T01:58:48;10.20;;;3.90;;
37321;SDS011;23697;48.684;9.032;2023-09-30T02:01:15;10.65;;;3.45;;
37321;SDS011;23697;48.684;9.032;2023-09-30T02:03:42;8.90;;;3.78;;
37321;SDS011;23697;48.684;9.032;2023-09-30T02:06:08;8.65;;;3.80;;
37321;SDS011;23697;48.684;9.032;2023-09-30T02:08:35;11.90;;;3.90;;
37321;SDS011;23697;48.684;9.032;2023-09-30T02:11:02;8.38;;;3.53;;
37321;SDS011;23697;48.684;9.032;2023-09-30T02:13:32;9.60;;;3.90;;
37321;SDS011;23697;48.684;9.032;2023-09-30T02:15:59;10.25;;;4.03;;
37321;SDS011;23697;48.684;9.032;2023-09-30T02:18:26;9.23;;;3.85;;
37321;SDS011;23697;48.684;9.032;2023-09-30T02:20:53;9.70;;;4.20;;
37321;SDS011;23697;48.684;9.032;2023-09-30T02:23:20;9.07;;;3.80;;
37321;SDS011;23697;48.684;9.032;2023-09-30T02:25:47;10.25;;;3.78;;
37321;SDS011;23697;48.684;9.032;2023-09-30T02:28:14;10.10;;;3.72;;
37321;SDS011;23697;48.684;9.032;2023-09-30T02:30:42;9.85;;;3.88;;
37321;SDS011;23697;48.684;9.032;2023-09-30T02:33:09;10.07;;;3.95;;
37321;SDS011;23697;48.684;9.032;2023-09-30T02:35:36;8.48;;;3.38;;
37321;SDS011;23697;48.684;9.032;2023-09-30T02:38:03;8.45;;;3.40;;
37321;SDS011;23697;48.684;9.032;2023-09-30T02:40:31;8.38;;;3.80;;
37321;SDS011;23697;48.684;9.032;2023-09-30T02:42:59;8.63;;;3.80;;
37321;SDS011;23697;48.684;9.032;2023-09-30T02:45:25;11.10;;;3.40;;
37321;SDS011;23697;48.684;9.032;2023-09-30T02:47:53;8.00;;;3.53;;
37321;SDS011;23697;48.684;9.032;2023-09-30T02:50:20;11.07;;;3.70;;
37321;SDS011;23697;48.684;9.032;2023-09-30T02:52:47;10.07;;;4.00;;
37321;SDS011;23697;48.684;9.032;2023-09-30T02:55:17;11.07;;;3.85;;
37321;SDS011;23697;48.684;9.032;2023-09-30T02:57:43;10.75;;;3.80;;
37321;SDS011;23697;48.684;9.032;2023-09-30T03:00:12;9.18;;;3.83;;
37321;SDS011;23697;48.684;9.032;2023-09-30T03:02:48;9.38;;;3.80;;
37321;SDS011;23697;48.684;9.032;2023-09-30T03:05:17;8.10;;;3.78;;
37321;SDS011;23697;48.684;9.032;2023-09-30T03:07:45;9.02;;;4.00;;
37321;SDS011;23697;48.684;9.032;2023-09-30T03:10:12;7.88;;;3.55;;
37321;SDS011;23697;48.684;9.032;2023-09-30T03:12:45;11.18;;;3.78;;
37321;SDS011;23697;48.684;9.032;2023-09-30T03:15:12;9.88;;;3.95;;
37321;SDS011;23697;48.684;9.032;2023-09-30T03:17:40;9.35;;;3.60;;
37321;SDS011;23697;48.684;9.032;2023-09-30T03:20:08;9.43;;;3.92;;
37321;SDS011;23697;48.684;9.032;2023-09-30T03:22:38;11.00;;;3.72;;
37321;SDS011;23697;48.684;9.032;2023-09-30T03:25:09;7.20;;;3.22;;
37321;SDS011;23697;48.684;9.032;2023-09-30T03:27:36;9.20;;;4.05;;
37321;SDS011;23697;48.684;9.032;2023-09-30T03:30:04;9.02;;;3.70;;
37321;SDS011;23697;48.684;9.032;2023-09-30T03:32:31;8.60;;;3.50;;
37321;SDS011;23697;48.684;9.032;2023-09-30T03:34:59;7.00;;;3.30;;
37321;SDS011;23697;48.684;9.032;2023-09-30T03:37:26;9.43;;;3.65;;
37321;SDS011;23697;48.684;9.032;2023-09-30T03:39:54;9.55;;;3.58;;
37321;SDS011;23697;48.684;9.032;2023-09-30T03:42:21;8.05;;;3.42;;
37321;SDS011;23697;48.684;9.032;2023-09-30T03:44:48;9.05;;;3.58;;
37321;SDS011;23697;48.684;9.032;2023-09-30T03:47:16;9.40;;;3.95;;
37321;SDS011;23697;48.684;9.032;2023-09-30T03:49:44;9.55;;;4.00;;
37321;SDS011;23697;48.684;9.032;2023-09-30T03:52:13;9.05;;;3.97;;
37321;SDS011;23697;48.684;9.032;2023-09-30T03:54:40;7.55;;;3.60;;
37321;SDS011;23697;48.684;9.032;2023-09-30T03:57:08;9.05;;;3.78;;
37321;SDS011;23697;48.684;9.032;2023-09-30T03:59:37;8.68;;;3.75;;
37321;SDS011;23697;48.684;9.032;2023-09-30T04:02:12;10.45;;;4.05;;
37321;SDS011;23697;48.684;9.032;2023-09-30T04:04:39;8.55;;;3.88;;
37321;SDS011;23697;48.684;9.032;2023-09-30T04:07:07;9.43;;;3.55;;
37321;SDS011;23697;48.684;9.032;2023-09-30T04:09:35;7.65;;;3.78;;
37321;SDS011;23697;48.684;9.032;2023-09-30T04:12:02;8.00;;;3.50;;
37321;SDS011;23697;48.684;9.032;2023-09-30T04:14:30;10.23;;;3.90;;
37321;SDS011;23697;48.684;9.032;2023-09-30T04:16:57;7.95;;;3.50;;
37321;SDS011;23697;48.684;9.032;2023-09-30T04:19:24;7.78;;;3.47;;
37321;SDS011;23697;48.684;9.032;2023-09-30T04:21:55;8.90;;;3.80;;
37321;SDS011;23697;48.684;9.032;2023-09-30T04:24:22;8.23;;;3.80;;
37321;SDS011;23697;48.684;9.032;2023-09-30T04:26:49;8.77;;;3.75;;
37321;SDS011;23697;48.684;9.032;2023-09-30T04:29:19;9.48;;;3.63;;
37321;SDS011;23697;48.684;9.032;2023-09-30T04:31:49;8.50;;;3.92;;
37321;SDS011;23697;48.684;9.032;2023-09-30T04:34:17;6.53;;;3.42;;
37321;SDS011;23697;48.684;9.032;2023-09-30T04:36:46;8.88;;;3.80;;
37321;SDS011;23697;48.684;9.032;2023-09-30T04:39:14;7.53;;;3.80;;
37321;SDS011;23697;48.684;9.032;2023-09-30T04:41:41;8.48;;;3.58;;
37321;SDS011;23697;48.684;9.032;2023-09-30T04:44:08;8.15;;;3.90;;
37321;SDS011;23697;48.684;9.032;2023-09-30T04:46:36;7.40;;;3.67;;
37321;SDS011;23697;48.684;9.032;2023-09-30T04:49:06;10.23;;;3.92;;
37321;SDS011;23697;48.684;9.032;2023-09-30T04:51:34;11.02;;;4.00;;
37321;SDS011;23697;48.684;9.032;2023-09-30T04:54:00;11.95;;;4.07;;
37321;SDS011;23697;48.684;9.032;2023-09-30T04:56:28;8.30;;;4.00;;
37321;SDS011;23697;48.684;9.032;2023-09-30T04:59:03;9.77;;;4.20;;
37321;SDS011;23697;48.684;9.032;2023-09-30T05:01:31;8.68;;;3.92;;
37321;SDS011;23697;48.684;9.032;2023-09-30T05:13:14;8.63;;;3.83;;
37321;SDS011;23697;48.684;9.032;2023-09-30T05:15:42;9.73;;;4.20;;
37321;SDS011;23697;48.684;9.032;2023-09-30T05:18:09;8.23;;;3.90;;
37321;SDS011;23697;48.684;9.032;2023-09-30T05:20:36;6.90;;;3.65;;
37321;SDS011;23697;48.684;9.032;2023-09-30T05:23:05;7.90;;;3.80;;
37321;SDS011;23697;48.684;9.032;2023-09-30T05:25:33;8.32;;;3.70;;
37321;SDS011;23697;48.684;9.032;2023-09-30T05:28:00;7.65;;;3.60;;
37321;SDS011;23697;48.684;9.032;2023-09-30T05:30:26;9.48;;;3.75;;
37321;SDS011;23697;48.684;9.032;2023-09-30T05:32:53;8.85;;;4.18;;
37321;SDS011;23697;48.684;9.032;2023-09-30T05:35:20;7.82;;;3.67;;
37321;SDS011;23697;48.684;9.032;2023-09-30T05:37:47;8.75;;;4.00;;
37321;SDS011;23697;48.684;9.032;2023-09-30T05:40:18;10.75;;;3.83;;
37321;SDS011;23697;48.684;9.032;2023-09-30T05:42:50;8.48;;;3.85;;
37321;SDS011;23697;48.684;9.032;2023-09-30T05:45:18;10.70;;;3.97;;
37321;SDS011;23697;48.684;9.032;2023-09-30T05:47:45;8.80;;;4.07;;
37321;SDS011;23697;48.684;9.032;2023-09-30T05:50:12;8.15;;;3.88;;
37321;SDS011;23697;48.684;9.032;2023-09-30T05:52:41;7.88;;;3.60;;
37321;SDS011;23697;48.684;9.032;2023-09-30T05:55:08;10.43;;;4.07;;
37321;SDS011;23697;48.684;9.032;2023-09-30T05:57:37;7.75;;;3.75;;
37321;SDS011;23697;48.684;9.032;2023-09-30T06:00:04;10.52;;;4.10;;
37321;SDS011;23697;48.684;9.032;2023-09-30T06:02:46;7.75;;;3.72;;
37321;SDS011;23697;48.684;9.032;2023-09-30T06:05:13;9.05;;;3.90;;
37321;SDS011;23697;48.684;9.032;2023-09-30T06:07:43;9.27;;;3.95;;
37321;SDS011;23697;48.684;9.032;2023-09-30T06:10:10;9.70;;;4.18;;
37321;SDS011;23697;48.684;9.032;2023-09-30T06:12:39;10.23;;;4.55;;
37321;SDS011;23697;48.684;9.032;2023-09-30T06:15:07;8.85;;;4.15;;
37321;SDS011;23697;48.684;9.032;2023-09-30T06:17:35;8.85;;;4.35;;
37321;SDS011;23697;48.684;9.032;2023-09-30T06:20:04;8.15;;;4.18;;
37321;SDS011;23697;48.684;9.032;2023-09-30T06:22:34;8.27;;;4.32;;
37321;SDS011;23697;48.684;9.032;2023-09-30T06:25:02;8.38;;;4.22;;
37321;SDS011;23697;48.684;9.032;2023-09-30T06:27:31;13.85;;;4.70;;
37321;SDS011;23697;48.684;9.032;2023-09-30T06:32:59;9.25;;;4.93;;
37321;SDS011;23697;48.684;9.032;2023-09-30T06:35:30;12.13;;;5.15;;
37321;SDS011;23697;48.684;9.032;2023-09-30T06:38:14;10.27;;;5.10;;
37321;SDS011;23697;48.684;9.032;2023-09-30T06:40:43;10.65;;;5.45;;
37321;SDS011;23697;48.684;9.032;2023-09-30T06:43:19;10.10;;;5.22;;
37321;SDS011;23697;48.684;9.032;2023-09-30T06:45:49;11.25;;;5.00;;
37321;SDS011;23697;48.684;9.032;2023-09-30T06:48:16;14.93;;;5.28;;
37321;SDS011;23697;48.684;9.032;2023-09-30T06:50:43;10.95;;;5.03;;
37321;SDS011;23697;48.684;9.032;2023-09-30T06:53:13;10.82;;;4.85;;
37321;SDS011;23697;48.684;9.032;2023-09-30T06:55:41;14.20;;;5.55;;
37321;SDS011;23697;48.684;9.032;2023-09-30T06:58:11;10.63;;;5.18;;
37321;SDS011;23697;48.684;9.032;2023-09-30T07:00:40;15.90;;;5.70;;
37321;SDS011;23697;48.684;9.032;2023-09-30T07:03:12;12.70;;;5.30;;
37321;SDS011;23697;48.684;9.032;2023-09-30T07:05:55;12.10;;;5.05;;
37321;SDS011;23697;48.684;9.032;2023-09-30T07:08:25;11.60;;;5.03;;
37321;SDS011;23697;48.684;9.032;2023-09-30T07:10:53;12.30;;;5.45;;
37321;SDS011;23697;48.684;9.032;2023-09-30T07:13:21;11.32;;;5.60;;
37321;SDS011;23697;48.684;9.032;2023-09-30T07:15:48;9.73;;;5.13;;
37321;SDS011;23697;48.684;9.032;2023-09-30T07:18:17;12.95;;;5.80;;
37321;SDS011;23697;48.684;9.032;2023-09-30T07:20:46;14.05;;;5.82;;
37321;SDS011;23697;48.684;9.032;2023-09-30T07:23:13;10.40;;;5.60;;
37321;SDS011;23697;48.684;9.032;2023-09-30T07:25:40;12.77;;;5.78;;
37321;SDS011;23697;48.684;9.032;2023-09-30T07:28:08;13.15;;;5.35;;
37321;SDS011;23697;48.684;9.032;2023-09-30T07:30:37;14.40;;;5.68;;
37321;SDS011;23697;48.684;9.032;2023-09-30T07:33:07;13.38;;;5.70;;
37321;SDS011;23697;48.684;9.032;2023-09-30T07:35:36;12.88;;;5.50;;
37321;SDS011;23697;48.684;9.032;2023-09-30T07:38:04;12.50;;;5.23;;
37321;SDS011;23697;48.684;9.032;2023-09-30T07:40:31;13.40;;;5.28;;
37321;SDS011;23697;48.684;9.032;2023-09-30T07:42:58;13.40;;;5.47;;
37321;SDS011;23697;48.684;9.032;2023-09-30T07:45:25;10.63;;;4.82;;
37321;SDS011;23697;48.684;9.032;2023-09-30T07:47:53;10.38;;;5.18;;
37321;SDS011;23697;48.684;9.032;2023-09-30T07:50:20;13.02;;;4.63;;
37321;SDS011;23697;48.684;9.032;2023-09-30T07:52:48;11.10;;;4.78;;
37321;SDS011;23697;48.684;9.032;2023-09-30T07:55:15;11.43;;;4.97;;
37321;SDS011;23697;48.684;9.032;2023-09-30T07:57:42;12.05;;;5.15;;
37321;SDS011;23697;48.684;9.032;2023-09-30T08:00:11;12.63;;;5.00;;
37321;SDS011;23697;48.684;9.032;2023-09-30T08:02:41;12.00;;;4.60;;
37321;SDS011;23697;48.684;9.032;2023-09-30T08:05:09;12.07;;;4.80;;
37321;SDS011;23697;48.684;9.032;2023-09-30T08:07:48;12.80;;;5.10;;
37321;SDS011;23697;48.684;9.032;2023-09-30T08:10:29;11.63;;;5.00;;
37321;SDS011;23697;48.684;9.032;2023-09-30T08:13:20;11.82;;;4.97;;
37321;SDS011;23697;48.684;9.032;2023-09-30T08:15:49;15.43;;;5.32;;
37321;SDS011;23697;48.684;9.032;2023-09-30T08:18:29;13.18;;;5.20;;
37321;SDS011;23697;48.684;9.032;2023-09-30T08:20:57;12.07;;;4.82;;
37321;SDS011;23697;48.684;9.032;2023-09-30T08:26:09;11.82;;;5.35;;
37321;SDS011;23697;48.684;9.032;2023-09-30T08:28:50;14.52;;;5.60;;
37321;SDS011;23697;48.684;9.032;2023-09-30T08:31:18;12.55;;;5.28;;
37321;SDS011;23697;48.684;9.032;2023-09-30T08:33:46;13.00;;;5.20;;
37321;SDS011;23697;48.684;9.032;2023-09-30T08:36:18;13.68;;;5.20;;
37321;SDS011;23697;48.684;9.032;2023-09-30T08:38:47;12.85;;;4.70;;
37321;SDS011;23697;48.684;9.032;2023-09-30T08:41:15;13.40;;;4.63;;
37321;SDS011;23697;48.684;9.032;2023-09-30T08:43:54;12.10;;;4.82;;
37321;SDS011;23697;48.684;9.032;2023-09-30T08:46:23;10.93;;;4.93;;
37321;SDS011;23697;48.684;9.032;2023-09-30T08:48:51;11.77;;;5.10;;
37321;SDS011;23697;48.684;9.032;2023-09-30T08:51:19;12.68;;;5.15;;
37321;SDS011;23697;48.684;9.032;2023-09-30T08:53:48;10.13;;;5.13;;
37321;SDS011;23697;48.684;9.032;2023-09-30T08:56:16;9.27;;;4.80;;
37321;SDS011;23697;48.684;9.032;2023-09-30T08:58:45;12.95;;;5.00;;
37321;SDS011;23697;48.684;9.032;2023-09-30T09:01:12;10.05;;;5.05;;
37321;SDS011;23697;48.684;9.032;2023-09-30T09:03:40;9.80;;;4.90;;
37321;SDS011;23697;48.684;9.032;2023-09-30T09:06:07;10.38;;;4.95;;
37321;SDS011;23697;48.684;9.032;2023-09-30T09:08:33;11.77;;;4.85;;
37321;SDS011;23697;48.684;9.032;2023-09-30T09:11:02;9.77;;;4.75;;
37321;SDS011;23697;48.684;9.032;2023-09-30T09:13:44;10.97;;;4.70;;
37321;SDS011;23697;48.684;9.032;2023-09-30T09:16:14;8.95;;;4.50;;
37321;SDS011;23697;48.684;9.032;2023-09-30T09:18:41;10.80;;;4.53;;
37321;SDS011;23697;48.684;9.032;2023-09-30T09:21:09;10.77;;;4.25;;
37321;SDS011;23697;48.684;9.032;2023-09-30T09:23:39;8.65;;;4.07;;
37321;SDS011;23697;48.684;9.032;2023-09-30T09:26:09;9.30;;;3.97;;
37321;SDS011;23697;48.684;9.032;2023-09-30T09:28:37;12.90;;;4.10;;
37321;SDS011;23697;48.684;9.032;2023-09-30T09:34:01;7.50;;;4.38;;
37321;SDS011;23697;48.684;9.032;2023-09-30T09:36:37;9.80;;;4.65;;
37321;SDS011;23697;48.684;9.032;2023-09-30T09:39:11;10.65;;;4.72;;
37321;SDS011;23697;48.684;9.032;2023-09-30T09:44:54;12.35;;;4.85;;
37321;SDS011;23697;48.684;9.032;2023-09-30T09:47:24;9.80;;;5.05;;
37321;SDS011;23697;48.684;9.032;2023-09-30T09:49:56;9.68;;;4.70;;
37321;SDS011;23697;48.684;9.032;2023-09-30T09:52:24;11.23;;;4.85;;
37321;SDS011;23697;48.684;9.032;2023-09-30T09:54:51;11.02;;;4.95;;
37321;SDS011;23697;48.684;9.032;2023-09-30T09:57:18;10.25;;;4.75;;
37321;SDS011;23697;48.684;9.032;2023-09-30T09:59:46;11.85;;;5.15;;
37321;SDS011;23697;48.684;9.032;2023-09-30T10:02:22;10.13;;;4.88;;
37321;SDS011;23697;48.684;9.032;2023-09-30T10:04:50;12.45;;;5.22;;
37321;SDS011;23697;48.684;9.032;2023-09-30T10:07:19;13.45;;;5.85;;
37321;SDS011;23697;48.684;9.032;2023-09-30T10:09:50;12.27;;;5.15;;
37321;SDS011;23697;48.684;9.032;2023-09-30T10:29:25;13.25;;;5.53;;
37321;SDS011;23697;48.684;9.032;2023-09-30T10:43:56;11.93;;;5.93;;
37321;SDS011;23697;48.684;9.032;2023-09-30T12:23:46;12.82;;;5.68;;
37321;SDS011;23697;48.684;9.032;2023-09-30T12:26:14;13.68;;;5.20;;
37321;SDS011;23697;48.684;9.032;2023-09-30T12:28:45;13.05;;;5.60;;
37321;SDS011;23697;48.684;9.032;2023-09-30T12:31:19;13.50;;;6.22;;
37321;SDS011;23697;48.684;9.032;2023-09-30T12:34:12;10.75;;;5.43;;
37321;SDS011;23697;48.684;9.032;2023-09-30T12:36:39;16.98;;;6.15;;
37321;SDS011;23697;48.684;9.032;2023-09-30T12:39:08;12.77;;;5.63;;
37321;SDS011;23697;48.684;9.032;2023-09-30T12:41:36;13.48;;;5.45;;
37321;SDS011;23697;48.684;9.032;2023-09-30T12:44:04;12.23;;;5.85;;
37321;SDS011;23697;48.684;9.032;2023-09-30T12:46:31;12.13;;;5.75;;
37321;SDS011;23697;48.684;9.032;2023-09-30T12:48:59;15.93;;;6.00;;
37321;SDS011;23697;48.684;9.032;2023-09-30T12:51:27;14.30;;;5.57;;
37321;SDS011;23697;48.684;9.032;2023-09-30T12:53:54;11.95;;;5.75;;
37321;SDS011;23697;48.684;9.032;2023-09-30T12:56:23;12.07;;;5.45;;
37321;SDS011;23697;48.684;9.032;2023-09-30T12:58:50;12.00;;;5.50;;
37321;SDS011;23697;48.684;9.032;2023-09-30T13:01:17;13.13;;;5.47;;
37321;SDS011;23697;48.684;9.032;2023-09-30T13:03:44;13.13;;;5.65;;
37321;SDS011;23697;48.684;9.032;2023-09-30T13:06:11;12.27;;;5.43;;
37321;SDS011;23697;48.684;9.032;2023-09-30T13:08:38;11.32;;;5.70;;
37321;SDS011;23697;48.684;9.032;2023-09-30T13:11:05;13.45;;;6.20;;
37321;SDS011;23697;48.684;9.032;2023-09-30T13:13:33;13.00;;;5.38;;
37321;SDS011;23697;48.684;9.032;2023-09-30T13:16:00;13.77;;;5.93;;
37321;SDS011;23697;48.684;9.032;2023-09-30T13:18:27;12.75;;;6.00;;
37321;SDS011;23697;48.684;9.032;2023-09-30T13:20:54;12.32;;;5.43;;
37321;SDS011;23697;48.684;9.032;2023-09-30T13:23:22;12.80;;;5.40;;
37321;SDS011;23697;48.684;9.032;2023-09-30T13:25:49;13.25;;;5.93;;
37321;SDS011;23697;48.684;9.032;2023-09-30T13:28:16;12.98;;;5.72;;
37321;SDS011;23697;48.684;9.032;2023-09-30T13:30:44;15.82;;;6.15;;
37321;SDS011;23697;48.684;9.032;2023-09-30T13:33:13;12.45;;;5.78;;
37321;SDS011;23697;48.684;9.032;2023-09-30T13:35:39;13.07;;;5.85;;
37321;SDS011;23697;48.684;9.032;2023-09-30T13:38:06;14.20;;;6.20;;
37321;SDS011;23697;48.684;9.032;2023-09-30T13:55:58;10.38;;;5.38;;
37321;SDS011;23697;48.684;9.032;2023-09-30T13:58:25;11.90;;;5.40;;
37321;SDS011;23697;48.684;9.032;2023-09-30T14:00:52;10.80;;;4.93;;
37321;SDS011;23697;48.684;9.032;2023-09-30T14:03:18;11.90;;;5.40;;
37321;SDS011;23697;48.684;9.032;2023-09-30T14:05:45;12.70;;;5.25;;
37321;SDS011;23697;48.684;9.032;2023-09-30T14:08:12;13.02;;;5.50;;
37321;SDS011;23697;48.684;9.032;2023-09-30T14:10:39;11.18;;;5.28;;
37321;SDS011;23697;48.684;9.032;2023-09-30T14:13:07;12.20;;;5.50;;
37321;SDS011;23697;48.684;9.032;2023-09-30T14:15:34;11.50;;;5.40;;
37321;SDS011;23697;48.684;9.032;2023-09-30T14:18:01;10.45;;;5.53;;
37321;SDS011;23697;48.684;9.032;2023-09-30T14:20:29;10.20;;;5.20;;
37321;SDS011;23697;48.684;9.032;2023-09-30T14:22:56;11.85;;;5.45;;
37321;SDS011;23697;48.684;9.032;2023-09-30T14:25:22;12.07;;;5.60;;
37321;SDS011;23697;48.684;9.032;2023-09-30T14:27:49;11.50;;;5.75;;
37321;SDS011;23697;48.684;9.032;2023-09-30T14:30:18;12.73;;;5.43;;
37321;SDS011;23697;48.684;9.032;2023-09-30T14:32:46;12.35;;;5.40;;
37321;SDS011;23697;48.684;9.032;2023-09-30T14:35:12;13.02;;;5.40;;
37321;SDS011;23697;48.684;9.032;2023-09-30T14:37:40;11.50;;;5.50;;
37321;SDS011;23697;48.684;9.032;2023-09-30T14:40:08;13.32;;;5.88;;
37321;SDS011;23697;48.684;9.032;2023-09-30T14:42:35;11.65;;;5.40;;
37321;SDS011;23697;48.684;9.032;2023-09-30T14:45:02;10.80;;;5.30;;
37321;SDS011;23697;48.684;9.032;2023-09-30T14:47:31;12.50;;;5.15;;
37321;SDS011;23697;48.684;9.032;2023-09-30T14:49:58;11.93;;;5.40;;
37321;SDS011;23697;48.684;9.032;2023-09-30T14:52:26;12.57;;;5.68;;
37321;SDS011;23697;48.684;9.032;2023-09-30T14:54:53;10.52;;;5.32;;
37321;SDS011;23697;48.684;9.032;2023-09-30T14:57:20;10.52;;;5.38;;
37321;SDS011;23697;48.684;9.032;2023-09-30T14:59:47;14.20;;;5.60;;
37321;SDS011;23697;48.684;9.032;2023-09-30T15:02:14;12.35;;;5.50;;
37321;SDS011;23697;48.684;9.032;2023-09-30T15:04:42;12.63;;;5.43;;
37321;SDS011;23697;48.684;9.032;2023-09-30T15:07:09;11.88;;;5.18;;
37321;SDS011;23697;48.684;9.032;2023-09-30T15:09:37;11.40;;;5.20;;
37321;SDS011;23697;48.684;9.032;2023-09-30T15:12:04;12.30;;;5.18;;
37321;SDS011;23697;48.684;9.032;2023-09-30T15:14:31;11.35;;;5.30;;
37321;SDS011;23697;48.684;9.032;2023-09-30T15:16:57;11.73;;;5.30;;
37321;SDS011;23697;48.684;9.032;2023-09-30T15:19:24;10.50;;;4.95;;
37321;SDS011;23697;48.684;9.032;2023-09-30T15:21:52;10.90;;;5.30;;
37321;SDS011;23697;48.684;9.032;2023-09-30T15:24:19;12.77;;;5.50;;
37321;SDS011;23697;48.684;9.032;2023-09-30T15:26:46;12.80;;;5.40;;
37321;SDS011;23697;48.684;9.032;2023-09-30T15:29:13;13.82;;;5.55;;
37321;SDS011;23697;48.684;9.032;2023-09-30T15:31:40;11.80;;;5.22;;
37321;SDS011;23697;48.684;9.032;2023-09-30T15:34:07;12.27;;;5.65;;
37321;SDS011;23697;48.684;9.032;2023-09-30T15:36:35;12.80;;;5.00;;
37321;SDS011;23697;48.684;9.032;2023-09-30T15:39:05;11.50;;;5.43;;
37321;SDS011;23697;48.684;9.032;2023-09-30T15:41:32;11.07;;;5.00;;
37321;SDS011;23697;48.684;9.032;2023-09-30T15:43:59;11.30;;;4.90;;
37321;SDS011;23697;48.684;9.032;2023-09-30T15:46:26;11.35;;;5.20;;
37321;SDS011;23697;48.684;9.032;2023-09-30T15:48:53;11.38;;;5.28;;
37321;SDS011;23697;48.684;9.032;2023-09-30T15:51:20;13.15;;;5.20;;
37321;SDS011;23697;48.684;9.032;2023-09-30T15:53:47;10.57;;;5.10;;
37321;SDS011;23697;48.684;9.032;2023-09-30T15:56:15;12.85;;;5.25;;
37321;SDS011;23697;48.684;9.032;2023-09-30T15:58:42;11.20;;;5.10;;
37321;SDS011;23697;48.684;9.032;2023-09-30T16:01:10;12.07;;;4.90;;
37321;SDS011;23697;48.684;9.032;2023-09-30T16:03:38;10.82;;;5.13;;
37321;SDS011;23697;48.684;9.032;2023-09-30T16:06:06;11.88;;;5.30;;
37321;SDS011;23697;48.684;9.032;2023-09-30T16:08:34;11.02;;;5.20;;
37321;SDS011;23697;48.684;9.032;2023-09-30T16:11:01;12.65;;;6.03;;
37321;SDS011;23697;48.684;9.032;2023-09-30T16:13:29;14.15;;;5.53;;
37321;SDS011;23697;48.684;9.032;2023-09-30T16:15:56;12.27;;;5.20;;
37321;SDS011;23697;48.684;9.032;2023-09-30T16:18:23;11.75;;;4.97;;
37321;SDS011;23697;48.684;9.032;2023-09-30T16:20:50;13.63;;;5.43;;
37321;SDS011;23697;48.684;9.032;2023-09-30T16:23:17;10.63;;;5.05;;
37321;SDS011;23697;48.684;9.032;2023-09-30T16:25:43;11.35;;;5.07;;
37321;SDS011;23697;48.684;9.032;2023-09-30T16:28:10;10.65;;;4.78;;
37321;SDS011;23697;48.684;9.032;2023-09-30T16:30:38;11.07;;;5.30;;
37321;SDS011;23697;48.684;9.032;2023-09-30T16:33:05;12.02;;;5.18;;
37321;SDS011;23697;48.684;9.032;2023-09-30T16:35:32;15.30;;;5.20;;
37321;SDS011;23697;48.684;9.032;2023-09-30T16:37:59;11.85;;;5.13;;
37321;SDS011;23697;48.684;9.032;2023-09-30T16:40:28;10.90;;;4.78;;
37321;SDS011;23697;48.684;9.032;2023-09-30T16:49:29;12.07;;;4.93;;
37321;SDS011;23697;48.684;9.032;2023-09-30T16:52:10;11.18;;;5.10;;
37321;SDS011;23697;48.684;9.032;2023-09-30T16:54:36;13.55;;;5.45;;
37321;SDS011;23697;48.684;9.032;2023-09-30T16:57:05;10.93;;;5.15;;
37321;SDS011;23697;48.684;9.032;2023-09-30T16:59:32;13.13;;;5.28;;
37321;SDS011;23697;48.684;9.032;2023-09-30T17:02:01;13.30;;;5.43;;
37321;SDS011;23697;48.684;9.032;2023-09-30T17:04:27;11.55;;;5.50;;
37321;SDS011;23697;48.684;9.032;2023-09-30T17:06:54;11.63;;;5.80;;
37321;SDS011;23697;48.684;9.032;2023-09-30T17:09:21;13.43;;;5.43;;
37321;SDS011;23697;48.684;9.032;2023-09-30T17:11:48;15.55;;;5.68;;
37321;SDS011;23697;48.684;9.032;2023-09-30T17:14:15;11.48;;;5.45;;
37321;SDS011;23697;48.684;9.032;2023-09-30T17:16:43;12.60;;;5.75;;
37321;SDS011;23697;48.684;9.032;2023-09-30T17:19:11;12.05;;;5.28;;
37321;SDS011;23697;48.684;9.032;2023-09-30T17:21:38;12.77;;;5.50;;
37321;SDS011;23697;48.684;9.032;2023-09-30T17:24:05;12.40;;;5.40;;
37321;SDS011;23697;48.684;9.032;2023-09-30T17:26:32;11.80;;;5.05;;
37321;SDS011;23697;48.684;9.032;2023-09-30T17:28:59;12.18;;;5.50;;
37321;SDS011;23697;48.684;9.032;2023-09-30T17:31:26;13.65;;;5.68;;
37321;SDS011;23697;48.684;9.032;2023-09-30T17:33:52;12.60;;;5.80;;
37321;SDS011;23697;48.684;9.032;2023-09-30T17:36:21;13.57;;;5.85;;